Aeroporto :
LOGIN :

Iscrizione | Disclaimer

   EN    FR    IT 

 










Sommario :    VFR   VFR Marginale   IFR   IFR Intensivo   IFR Molto Intensivo
Visibilità : 
Base nubi : 
>= 8 km
>= 3000ft
5 / 8 km
1000 / 3000 ft
1500m / 5 km
500 / 1000 ft
800 / 1500m
200 / 500 ft
< 800m
< 200 ft
Simboli :   Temporali  Nebbia  Neve Forte  Precipitazioni Forti  Vento > 20 kt
SIGMETs :   Varie  Temporali  Ghiacco  Turbolenza  Onda orograficha  Ceneri Vulcaniche






- Altitudine del aeroporto : 52 ft
- Codice IATA : RNN


EKRN - Bornholm Ronne

ULTIMO METAR :
  • 142050Z AUTO 07007KT 9999 BKN015/// 06/04 Q1016

METARs OBSOLETI :
  • 142020Z AUTO 10008KT 9999 BKN015/// 06/04 Q1016
  • 141950Z AUTO 12009KT 9999 BKN015/// 06/05 Q1016
  • 141920Z AUTO 11008KT 9999 NCD 05/04 Q1015
  • 141850Z AUTO 09006KT 9999 NCD 05/04 Q1014
  • 141820Z AUTO 08006KT 9999 FEW016/// 05/04 Q1014

TAF TAF EKRN
Valido dal 14 a 18 ore il 14 a 23 ore UTC


141717Z 1418/1423 10010KT 9999 BKN018



MetMap, La meteo Aeronautica in un colpo d'occhio ! - Copyright ORBIFLY Dicembre 2007 - Disclaimer

ORBIFLY MET'MAP TEAM :

Programmazione e sviluppo : Alexandra Zaïnal
Concezione e sviluppo : Baudouin d'Aumeries
Co-Programmazione e sviluppo : Marc-Olivier Méhu
Supporto tecnico e logistico : Manuel Goepfert
Aiuto per la traduzione : Arnaldo La Scala

Contatto : metmap@orbifly.com




FONTI E CREDITI :

   NOAA